Time;durP1;ratioP1;P1;durP2;ratioP2;P2;SDS_P1;SDS_P2;PMS_P1;PMS_P2;Temp;Humidity;BMP_temperature;BMP_pressure;BME280_temperature;BME280_humidity;BME280_pressure;Samples;Min_cycle;Max_cycle;Signal;HPM_P1;HPM_P2
2023/06/28 00:00:03;;;;;;;7.55;2.45;;;;;;;;;;5097548;28;20103;-77
2023/06/28 00:02:35;;;;;;;4.63;2.63;;;;;;;;;;5096634;28;20031;-78
2023/06/28 00:05:01;;;;;;;4.93;2.47;;;;;;;;;;5094582;28;20433;-77
2023/06/28 00:07:26;;;;;;;3.28;2.60;;;;;;;;;;5095617;28;20035;-78
2023/06/28 00:09:51;;;;;;;5.15;2.58;;;;;;;;;;5095777;28;20106;-77
2023/06/28 00:12:17;;;;;;;6.30;2.80;;;;;;;;;;5095718;28;20474;-77
2023/06/28 00:14:42;;;;;;;7.45;3.03;;;;;;;;;;5094415;28;20628;-78
2023/06/28 00:17:07;;;;;;;14.73;2.50;;;;;;;;;;5095443;28;20024;-78
2023/06/28 00:19:32;;;;;;;3.77;2.60;;;;;;;;;;5095550;28;20283;-78
2023/06/28 00:21:58;;;;;;;3.70;2.70;;;;;;;;;;5095405;28;20257;-77
2023/06/28 00:24:23;;;;;;;6.57;2.58;;;;;;;;;;5094043;28;20257;-78
2023/06/28 00:26:48;;;;;;;4.87;2.77;;;;;;;;;;5095148;28;20027;-77
2023/06/28 00:29:14;;;;;;;6.45;2.58;;;;;;;;;;5094003;28;20252;-78
2023/06/28 00:31:39;;;;;;;5.97;2.97;;;;;;;;;;5096311;28;20028;-78
2023/06/28 00:34:04;;;;;;;5.40;2.63;;;;;;;;;;5095182;28;20062;-78
2023/06/28 00:36:29;;;;;;;4.13;2.70;;;;;;;;;;5094909;28;20264;-77
2023/06/28 00:38:54;;;;;;;3.80;2.28;;;;;;;;;;5094764;28;20265;-78
2023/06/28 00:41:20;;;;;;;6.07;2.43;;;;;;;;;;5095297;28;20111;-77
2023/06/28 00:43:45;;;;;;;7.20;2.90;;;;;;;;;;5093624;28;20299;-77
2023/06/28 00:46:10;;;;;;;3.90;2.53;;;;;;;;;;5093524;28;20264;-77
2023/06/28 00:48:36;;;;;;;5.77;2.50;;;;;;;;;;5094640;28;20118;-77
2023/06/28 00:51:03;;;;;;;4.80;2.42;;;;;;;;;;5094891;28;20311;-77
2023/06/28 00:53:30;;;;;;;4.03;2.42;;;;;;;;;;5094508;28;20367;-77
2023/06/28 00:55:56;;;;;;;4.45;2.47;;;;;;;;;;5094343;28;20052;-78
2023/06/28 00:58:21;;;;;;;3.47;2.40;;;;;;;;;;5095441;28;20035;-78
2023/06/28 01:00:46;;;;;;;3.45;2.50;;;;;;;;;;5095354;28;20509;-79
2023/06/28 01:03:11;;;;;;;4.13;2.45;;;;;;;;;;5095057;28;20414;-79
2023/06/28 01:05:37;;;;;;;3.03;2.50;;;;;;;;;;5096340;28;20028;-79
2023/06/28 01:08:04;;;;;;;5.13;2.53;;;;;;;;;;5095070;28;20272;-77
2023/06/28 01:10:30;;;;;;;4.65;2.67;;;;;;;;;;5094497;28;20028;-78
2023/06/28 01:12:56;;;;;;;4.45;2.58;;;;;;;;;;5094471;28;20046;-78
2023/06/28 01:15:21;;;;;;;8.32;2.53;;;;;;;;;;5096103;28;20069;-77
2023/06/28 01:17:47;;;;;;;5.00;2.60;;;;;;;;;;5094058;28;20056;-78
2023/06/28 01:20:12;;;;;;;5.57;2.38;;;;;;;;;;5094789;28;20526;-77
2023/06/28 01:22:40;;;;;;;4.33;2.30;;;;;;;;;;5094434;28;20066;-77
2023/06/28 01:25:06;;;;;;;7.68;2.78;;;;;;;;;;5094722;28;20769;-77
2023/06/28 01:27:32;;;;;;;5.95;2.53;;;;;;;;;;5092968;28;20053;-77
2023/06/28 01:29:58;;;;;;;3.10;2.40;;;;;;;;;;5092995;28;20023;-77
2023/06/28 01:32:23;;;;;;;4.15;2.40;;;;;;;;;;5093936;28;20024;-78
2023/06/28 01:34:48;;;;;;;3.80;2.45;;;;;;;;;;5094558;28;20020;-77
2023/06/28 01:37:14;;;;;;;4.13;2.40;;;;;;;;;;5094056;28;20024;-77
2023/06/28 01:39:39;;;;;;;5.22;2.53;;;;;;;;;;5094107;28;20083;-77
2023/06/28 01:42:06;;;;;;;6.13;2.53;;;;;;;;;;5094170;28;20027;-77
2023/06/28 01:44:31;;;;;;;6.45;2.40;;;;;;;;;;5093902;28;20093;-78
2023/06/28 01:46:57;;;;;;;3.78;2.40;;;;;;;;;;5093956;28;20016;-77
2023/06/28 01:49:25;;;;;;;7.28;2.65;;;;;;;;;;5093997;28;20019;-77
2023/06/28 01:51:50;;;;;;;3.70;2.35;;;;;;;;;;5093979;28;20042;-77
2023/06/28 01:54:16;;;;;;;4.80;2.35;;;;;;;;;;5094245;28;20020;-77
2023/06/28 01:56:41;;;;;;;4.68;2.30;;;;;;;;;;5092926;28;20027;-78
2023/06/28 01:59:06;;;;;;;5.45;2.20;;;;;;;;;;5093079;28;20056;-77
2023/06/28 02:01:31;;;;;;;6.50;2.80;;;;;;;;;;5094568;28;20441;-77
2023/06/28 02:03:57;;;;;;;3.60;2.13;;;;;;;;;;5094972;28;20596;-77
2023/06/28 02:06:22;;;;;;;3.43;2.13;;;;;;;;;;5094288;28;20804;-77
2023/06/28 02:08:47;;;;;;;7.60;2.63;;;;;;;;;;5093659;28;20739;-78
2023/06/28 02:11:12;;;;;;;5.70;2.47;;;;;;;;;;5094159;28;20653;-78
2023/06/28 02:13:37;;;;;;;7.75;2.55;;;;;;;;;;5094031;28;20834;-77
2023/06/28 02:16:03;;;;;;;5.17;2.57;;;;;;;;;;5094182;28;20030;-76
2023/06/28 02:18:31;;;;;;;4.47;2.35;;;;;;;;;;5094557;28;20391;-78
2023/06/28 02:20:56;;;;;;;6.15;2.40;;;;;;;;;;5095697;28;20401;-77
2023/06/28 02:23:22;;;;;;;8.93;3.03;;;;;;;;;;5098568;28;20028;-77
2023/06/28 02:25:47;;;;;;;5.97;2.40;;;;;;;;;;5098072;28;20039;-80
2023/06/28 02:28:13;;;;;;;5.70;2.88;;;;;;;;;;5095946;28;20103;-77
2023/06/28 02:30:39;;;;;;;5.45;2.33;;;;;;;;;;5098032;28;20475;-78
2023/06/28 02:33:04;;;;;;;10.30;3.25;;;;;;;;;;5097624;28;20024;-78
2023/06/28 02:35:30;;;;;;;3.63;2.20;;;;;;;;;;5096189;28;20020;-78
2023/06/28 02:37:55;;;;;;;3.92;2.42;;;;;;;;;;5097169;28;20028;-77
2023/06/28 02:40:21;;;;;;;4.57;2.13;;;;;;;;;;5097688;28;20024;-78
2023/06/28 02:42:46;;;;;;;6.88;2.30;;;;;;;;;;5098290;28;20335;-79
2023/06/28 02:45:11;;;;;;;4.43;2.40;;;;;;;;;;5097694;28;20119;-77
2023/06/28 02:47:38;;;;;;;5.15;2.28;;;;;;;;;;5098510;28;20314;-77
2023/06/28 02:50:05;;;;;;;6.43;2.50;;;;;;;;;;5099667;28;20051;-77
2023/06/28 02:52:30;;;;;;;7.65;2.78;;;;;;;;;;5098823;28;20387;-78
2023/06/28 02:54:56;;;;;;;6.28;2.55;;;;;;;;;;5098622;28;20024;-76
2023/06/28 02:57:21;;;;;;;7.20;2.63;;;;;;;;;;5098827;28;20024;-79
2023/06/28 02:59:46;;;;;;;10.87;2.70;;;;;;;;;;5099781;28;20321;-79
2023/06/28 03:02:15;;;;;;;8.27;2.50;;;;;;;;;;5098502;28;20257;-79
2023/06/28 03:04:40;;;;;;;8.90;2.97;;;;;;;;;;5099216;28;20252;-79
2023/06/28 03:07:07;;;;;;;4.47;2.40;;;;;;;;;;5098805;28;20026;-79
2023/06/28 03:09:32;;;;;;;4.78;2.30;;;;;;;;;;5098322;28;20280;-79
2023/06/28 03:11:58;;;;;;;2.85;2.33;;;;;;;;;;5097872;28;20507;-77
2023/06/28 03:14:23;;;;;;;3.90;2.40;;;;;;;;;;5098860;28;20096;-78
2023/06/28 03:16:48;;;;;;;5.50;2.45;;;;;;;;;;5098332;28;20288;-77
2023/06/28 03:19:14;;;;;;;6.80;2.60;;;;;;;;;;5094912;28;20395;-77
2023/06/28 03:21:39;;;;;;;8.85;2.50;;;;;;;;;;5095407;28;20027;-76
2023/06/28 03:24:04;;;;;;;3.60;2.37;;;;;;;;;;5096288;28;20027;-78
2023/06/28 03:26:29;;;;;;;4.70;2.50;;;;;;;;;;5097348;28;20275;-78
2023/06/28 03:28:57;;;;;;;7.60;2.72;;;;;;;;;;5097092;28;20032;-77
2023/06/28 03:31:23;;;;;;;4.20;2.80;;;;;;;;;;5097805;28;20498;-76
2023/06/28 03:33:48;;;;;;;4.22;2.47;;;;;;;;;;5096672;28;20032;-78
2023/06/28 03:36:14;;;;;;;7.83;2.73;;;;;;;;;;5097122;28;20024;-77
2023/06/28 03:38:40;;;;;;;6.25;2.72;;;;;;;;;;5095601;28;20260;-77
2023/06/28 03:41:05;;;;;;;4.13;2.50;;;;;;;;;;5095191;28;20101;-77
2023/06/28 03:43:30;;;;;;;11.70;2.88;;;;;;;;;;5096316;28;20012;-77
2023/06/28 03:45:55;;;;;;;12.53;2.93;;;;;;;;;;5096270;28;20437;-76
2023/06/28 03:48:21;;;;;;;5.53;2.43;;;;;;;;;;5096388;28;20665;-78
2023/06/28 03:50:47;;;;;;;7.78;2.97;;;;;;;;;;5096677;28;20264;-78
2023/06/28 03:53:12;;;;;;;7.50;2.95;;;;;;;;;;5096581;28;20021;-77
2023/06/28 03:55:37;;;;;;;7.40;2.30;;;;;;;;;;5097310;28;20055;-77
2023/06/28 03:58:02;;;;;;;7.50;2.70;;;;;;;;;;5097085;28;20265;-77
2023/06/28 04:00:28;;;;;;;6.55;2.58;;;;;;;;;;5096545;28;20267;-77
2023/06/28 04:02:53;;;;;;;10.93;2.70;;;;;;;;;;5096087;28;20015;-78
2023/06/28 04:05:18;;;;;;;10.60;2.70;;;;;;;;;;5097237;28;20343;-78
2023/06/28 04:07:43;;;;;;;8.47;2.53;;;;;;;;;;5095264;28;20299;-77
2023/06/28 04:10:09;;;;;;;12.17;2.70;;;;;;;;;;5094108;28;20264;-77
2023/06/28 04:12:34;;;;;;;9.85;2.45;;;;;;;;;;5095152;28;20276;-76
2023/06/28 04:15:01;;;;;;;10.70;2.10;;;;;;;;;;5095519;28;20479;-77
2023/06/28 04:17:26;;;;;;;7.35;2.80;;;;;;;;;;5095176;28;20321;-77
2023/06/28 04:19:51;;;;;;;6.27;2.03;;;;;;;;;;5094874;28;20424;-81
2023/06/28 04:22:16;;;;;;;4.03;2.37;;;;;;;;;;5098589;28;20777;-78
2023/06/28 04:24:42;;;;;;;6.65;2.47;;;;;;;;;;5095318;28;20771;-78
2023/06/28 04:27:09;;;;;;;7.70;2.50;;;;;;;;;;5096859;28;20042;-77
2023/06/28 04:29:34;;;;;;;6.13;2.30;;;;;;;;;;5095373;28;20596;-77
2023/06/28 04:32:03;;;;;;;8.27;2.70;;;;;;;;;;5098797;28;20030;-82
2023/06/28 04:34:29;;;;;;;8.57;2.13;;;;;;;;;;5097066;28;20722;-77
2023/06/28 04:36:57;;;;;;;8.40;2.53;;;;;;;;;;5097232;28;20494;-78
2023/06/28 04:39:22;;;;;;;10.55;2.60;;;;;;;;;;5097650;28;20023;-80
2023/06/28 04:41:47;;;;;;;9.13;2.53;;;;;;;;;;5095884;28;20024;-77
2023/06/28 04:44:13;;;;;;;9.17;2.33;;;;;;;;;;5093307;28;20032;-78
2023/06/28 04:46:38;;;;;;;10.00;2.20;;;;;;;;;;5097137;28;20283;-82
2023/06/28 04:49:03;;;;;;;8.20;2.70;;;;;;;;;;5095404;28;20016;-76
2023/06/28 04:51:29;;;;;;;7.45;2.40;;;;;;;;;;5094620;28;20031;-75
2023/06/28 04:53:55;;;;;;;7.95;2.50;;;;;;;;;;5094659;28;20596;-75
2023/06/28 04:56:20;;;;;;;7.80;2.50;;;;;;;;;;5094880;28;20074;-73
2023/06/28 04:58:45;;;;;;;7.78;1.90;;;;;;;;;;5095720;28;20429;-74
2023/06/28 05:01:11;;;;;;;6.10;2.38;;;;;;;;;;5093760;28;20016;-76
2023/06/28 05:03:38;;;;;;;7.97;2.25;;;;;;;;;;5090247;28;20016;-76
2023/06/28 05:06:07;;;;;;;7.57;2.47;;;;;;;;;;5091681;28;20133;-75
2023/06/28 05:08:33;;;;;;;6.13;2.28;;;;;;;;;;5076679;28;20109;-74
2023/06/28 05:10:59;;;;;;;6.38;2.30;;;;;;;;;;5091725;28;20127;-75
2023/06/28 05:13:25;;;;;;;7.35;2.55;;;;;;;;;;5091766;28;20042;-74
2023/06/28 05:15:50;;;;;;;7.43;2.33;;;;;;;;;;5094571;28;20079;-74
2023/06/28 05:18:17;;;;;;;6.75;1.98;;;;;;;;;;5094226;28;20028;-75
2023/06/28 05:20:42;;;;;;;4.55;2.38;;;;;;;;;;5093997;28;20028;-75
2023/06/28 05:23:13;;;;;;;5.93;2.40;;;;;;;;;;5094412;28;20020;-75
2023/06/28 05:25:39;;;;;;;9.32;2.28;;;;;;;;;;5094105;28;20255;-75
2023/06/28 05:28:05;;;;;;;8.57;1.95;;;;;;;;;;5092819;28;20118;-75
2023/06/28 05:30:31;;;;;;;9.18;2.45;;;;;;;;;;5094118;28;20107;-75
2023/06/28 05:32:56;;;;;;;10.10;2.30;;;;;;;;;;5093760;28;20147;-75
2023/06/28 05:35:21;;;;;;;7.77;2.60;;;;;;;;;;5094040;28;20020;-75
2023/06/28 05:37:47;;;;;;;4.32;2.33;;;;;;;;;;5092421;28;20763;-75
2023/06/28 05:40:12;;;;;;;7.05;2.22;;;;;;;;;;5092452;28;20032;-75
2023/06/28 05:42:37;;;;;;;8.02;2.20;;;;;;;;;;5093790;28;20020;-75
2023/06/28 05:45:03;;;;;;;7.30;2.30;;;;;;;;;;5092657;28;20031;-75
2023/06/28 05:47:28;;;;;;;4.25;2.22;;;;;;;;;;5092201;28;20483;-74
2023/06/28 05:49:53;;;;;;;7.63;2.10;;;;;;;;;;5093538;28;20024;-75
2023/06/28 05:52:18;;;;;;;11.45;2.33;;;;;;;;;;5093466;28;20016;-75
2023/06/28 05:54:44;;;;;;;9.52;2.30;;;;;;;;;;5093157;28;20458;-74
2023/06/28 05:57:09;;;;;;;5.53;2.10;;;;;;;;;;5092164;28;20036;-75
2023/06/28 05:59:34;;;;;;;11.73;2.10;;;;;;;;;;5092108;28;20264;-75
2023/06/28 06:02:00;;;;;;;10.85;2.30;;;;;;;;;;5093493;28;20028;-75
2023/06/28 06:04:25;;;;;;;4.63;1.80;;;;;;;;;;5092426;28;20023;-75
2023/06/28 06:06:50;;;;;;;6.70;2.37;;;;;;;;;;5092674;28;20051;-74
2023/06/28 06:09:15;;;;;;;6.85;1.95;;;;;;;;;;5093641;28;20290;-75
2023/06/28 06:11:41;;;;;;;6.03;2.00;;;;;;;;;;5094167;28;20040;-75
2023/06/28 06:14:07;;;;;;;4.10;2.10;;;;;;;;;;5092958;28;20280;-74
2023/06/28 06:16:32;;;;;;;7.43;1.90;;;;;;;;;;5093514;28;20020;-74
2023/06/28 06:18:57;;;;;;;6.55;2.00;;;;;;;;;;5093247;28;20032;-74
2023/06/28 06:21:22;;;;;;;3.88;1.73;;;;;;;;;;5093243;28;20099;-75
2023/06/28 06:23:48;;;;;;;3.07;1.67;;;;;;;;;;5092209;28;20020;-75
2023/06/28 06:26:13;;;;;;;6.35;1.73;;;;;;;;;;5093741;28;20310;-74
2023/06/28 06:28:38;;;;;;;7.00;2.05;;;;;;;;;;5093481;28;20036;-76
2023/06/28 06:31:03;;;;;;;13.73;1.90;;;;;;;;;;5093331;28;20027;-76
2023/06/28 06:33:29;;;;;;;4.70;2.23;;;;;;;;;;5093089;28;20292;-76
2023/06/28 06:35:54;;;;;;;5.05;1.60;;;;;;;;;;5093584;28;20272;-75
2023/06/28 06:38:19;;;;;;;4.20;1.70;;;;;;;;;;5093206;28;20047;-75
2023/06/28 06:40:45;;;;;;;7.88;1.60;;;;;;;;;;5093099;28;20260;-75
2023/06/28 06:43:10;;;;;;;6.35;1.70;;;;;;;;;;5091741;28;20024;-75
2023/06/28 06:45:35;;;;;;;7.22;1.58;;;;;;;;;;5091848;28;20028;-75
2023/06/28 06:48:00;;;;;;;5.53;1.40;;;;;;;;;;5093149;28;20028;-75
2023/06/28 06:50:26;;;;;;;5.78;1.70;;;;;;;;;;5091545;28;20776;-75
2023/06/28 06:52:51;;;;;;;7.60;1.43;;;;;;;;;;5093237;28;20466;-75
2023/06/28 06:55:16;;;;;;;4.70;1.35;;;;;;;;;;5091740;28;20680;-75
2023/06/28 06:57:41;;;;;;;5.28;1.40;;;;;;;;;;5091392;28;20020;-74
2023/06/28 07:00:08;;;;;;;6.47;1.40;;;;;;;;;;5092694;28;20106;-75
2023/06/28 07:02:34;;;;;;;6.43;1.35;;;;;;;;;;5091656;28;20345;-74
2023/06/28 07:04:59;;;;;;;8.73;1.70;;;;;;;;;;5092956;28;20051;-74
2023/06/28 07:07:24;;;;;;;4.57;1.20;;;;;;;;;;5094624;28;20056;-75
2023/06/28 07:09:49;;;;;;;3.53;1.27;;;;;;;;;;5096799;28;20253;-75
2023/06/28 07:12:15;;;;;;;5.10;1.20;;;;;;;;;;5096343;28;20276;-73
2023/06/28 07:14:40;;;;;;;4.53;1.20;;;;;;;;;;5096605;28;20031;-75
2023/06/28 07:17:05;;;;;;;4.83;1.37;;;;;;;;;;5096295;28;20024;-75
2023/06/28 07:19:30;;;;;;;5.43;1.40;;;;;;;;;;5095210;28;20277;-75
2023/06/28 07:21:56;;;;;;;6.80;1.27;;;;;;;;;;5095045;28;20055;-76
2023/06/28 07:24:21;;;;;;;8.30;1.37;;;;;;;;;;5096385;28;20338;-75
2023/06/28 07:26:46;;;;;;;6.70;1.23;;;;;;;;;;5096202;28;20296;-74
2023/06/28 07:29:11;;;;;;;5.67;1.40;;;;;;;;;;5095969;28;20244;-75
2023/06/28 07:31:36;;;;;;;7.10;1.55;;;;;;;;;;5095984;28;20257;-75
2023/06/28 07:34:04;;;;;;;3.95;1.40;;;;;;;;;;5096294;28;20028;-75
2023/06/28 07:36:33;;;;;;;4.85;1.33;;;;;;;;;;5094652;28;20030;-75
2023/06/28 07:38:58;;;;;;;4.15;1.23;;;;;;;;;;5096363;28;20425;-75
2023/06/28 07:41:23;;;;;;;3.83;1.30;;;;;;;;;;5094681;28;20023;-75
2023/06/28 07:43:49;;;;;;;6.50;1.80;;;;;;;;;;5094634;28;20044;-75
2023/06/28 07:46:14;;;;;;;3.92;1.30;;;;;;;;;;5096022;28;20260;-75
2023/06/28 07:48:40;;;;;;;4.03;1.35;;;;;;;;;;5094529;28;20063;-75
2023/06/28 07:51:05;;;;;;;7.50;1.40;;;;;;;;;;5095599;28;20024;-75
2023/06/28 07:53:31;;;;;;;5.20;1.65;;;;;;;;;;5095771;28;20360;-75
2023/06/28 07:55:56;;;;;;;5.53;1.40;;;;;;;;;;5095513;28;20028;-75
2023/06/28 07:58:21;;;;;;;4.70;1.30;;;;;;;;;;5095565;28;20032;-75
2023/06/28 08:00:46;;;;;;;5.47;1.63;;;;;;;;;;5096002;28;20279;-75
2023/06/28 08:03:12;;;;;;;5.20;1.73;;;;;;;;;;5095439;28;20257;-75
2023/06/28 08:05:37;;;;;;;4.83;1.20;;;;;;;;;;5094095;28;20031;-75
2023/06/28 08:08:02;;;;;;;4.55;1.42;;;;;;;;;;5095313;28;20264;-75
2023/06/28 08:10:27;;;;;;;8.38;1.50;;;;;;;;;;5095298;28;20027;-74
2023/06/28 08:12:53;;;;;;;6.00;1.33;;;;;;;;;;5095248;28;20112;-75
2023/06/28 08:15:18;;;;;;;3.55;1.50;;;;;;;;;;5095442;28;20367;-74
2023/06/28 08:17:44;;;;;;;8.98;1.27;;;;;;;;;;5094241;28;20020;-75
2023/06/28 08:20:10;;;;;;;5.40;1.27;;;;;;;;;;5095276;28;20028;-74
2023/06/28 08:22:35;;;;;;;4.00;1.50;;;;;;;;;;5095250;28;20035;-74
2023/06/28 08:25:00;;;;;;;4.38;1.10;;;;;;;;;;5095163;28;20028;-75
2023/06/28 08:27:25;;;;;;;4.82;1.20;;;;;;;;;;5093532;28;20395;-75
2023/06/28 08:29:51;;;;;;;6.13;1.20;;;;;;;;;;5094674;28;20016;-74
2023/06/28 08:32:16;;;;;;;5.72;1.40;;;;;;;;;;5094635;28;20332;-75
2023/06/28 08:34:41;;;;;;;3.67;1.20;;;;;;;;;;5094777;28;20417;-75
2023/06/28 08:37:08;;;;;;;3.23;1.00;;;;;;;;;;5095113;28;20020;-74
2023/06/28 08:39:33;;;;;;;3.97;1.23;;;;;;;;;;5093453;28;20766;-74
2023/06/28 08:42:00;;;;;;;4.63;1.10;;;;;;;;;;5095133;28;20104;-74
2023/06/28 08:44:29;;;;;;;2.88;1.27;;;;;;;;;;5094847;28;20755;-74
2023/06/28 08:46:55;;;;;;;4.18;1.00;;;;;;;;;;5093245;28;20027;-74
2023/06/28 08:49:20;;;;;;;3.95;1.30;;;;;;;;;;5093342;28;20036;-74
2023/06/28 08:51:46;;;;;;;4.43;1.02;;;;;;;;;;5094406;28;20034;-74
2023/06/28 08:54:14;;;;;;;2.55;1.20;;;;;;;;;;5094872;28;20039;-75
2023/06/28 08:56:40;;;;;;;6.68;1.10;;;;;;;;;;5094271;28;20020;-76
2023/06/28 08:59:06;;;;;;;2.95;1.30;;;;;;;;;;5094427;28;20043;-74
2023/06/28 09:01:33;;;;;;;7.22;1.20;;;;;;;;;;5094552;28;20106;-74
2023/06/28 09:03:59;;;;;;;5.85;1.48;;;;;;;;;;5094251;28;20577;-75
2023/06/28 09:06:27;;;;;;;4.15;1.15;;;;;;;;;;5094268;28;20024;-74
2023/06/28 09:08:54;;;;;;;3.53;1.15;;;;;;;;;;5094071;28;20391;-75
2023/06/28 09:11:20;;;;;;;5.38;1.40;;;;;;;;;;5094067;28;20028;-75
2023/06/28 09:13:45;;;;;;;3.08;1.27;;;;;;;;;;5093984;28;20047;-75
2023/06/28 09:16:11;;;;;;;3.75;1.23;;;;;;;;;;5094184;28;20048;-75
2023/06/28 09:18:37;;;;;;;3.30;1.67;;;;;;;;;;5094345;28;20027;-74
2023/06/28 09:21:03;;;;;;;2.90;1.30;;;;;;;;;;5092810;28;20268;-75
2023/06/28 09:23:30;;;;;;;4.18;1.48;;;;;;;;;;5094010;28;20471;-74
2023/06/28 09:25:56;;;;;;;4.75;1.40;;;;;;;;;;5094036;28;20035;-74
2023/06/28 09:28:32;;;;;;;5.85;1.38;;;;;;;;;;5093570;28;20073;-75
2023/06/28 09:30:58;;;;;;;7.82;1.42;;;;;;;;;;5094158;28;20463;-75
2023/06/28 09:33:23;;;;;;;4.13;1.35;;;;;;;;;;5093894;28;20035;-75
2023/06/28 09:35:54;;;;;;;2.65;1.20;;;;;;;;;;5094156;28;20024;-75
2023/06/28 09:38:20;;;;;;;8.73;1.40;;;;;;;;;;5092407;28;20035;-75
2023/06/28 09:40:52;;;;;;;6.00;1.50;;;;;;;;;;5092523;28;20032;-75
2023/06/28 09:43:18;;;;;;;2.83;1.23;;;;;;;;;;5092926;28;20378;-75
2023/06/28 09:45:43;;;;;;;2.83;1.17;;;;;;;;;;5094337;28;20024;-75
2023/06/28 09:48:08;;;;;;;4.80;1.35;;;;;;;;;;5092419;28;20316;-76
2023/06/28 09:50:36;;;;;;;5.65;1.30;;;;;;;;;;5094292;28;20066;-75
2023/06/28 09:53:02;;;;;;;5.72;1.52;;;;;;;;;;5093826;28;20038;-75
2023/06/28 09:55:28;;;;;;;2.58;1.30;;;;;;;;;;5093763;28;20024;-75
2023/06/28 09:57:54;;;;;;;3.88;1.40;;;;;;;;;;5093545;28;20016;-76
2023/06/28 10:00:20;;;;;;;5.60;1.30;;;;;;;;;;5093711;28;20024;-75
2023/06/28 10:02:48;;;;;;;8.05;1.50;;;;;;;;;;5092221;28;20076;-74
2023/06/28 10:05:13;;;;;;;4.40;1.52;;;;;;;;;;5093623;28;20024;-75
2023/06/28 10:07:41;;;;;;;3.05;1.30;;;;;;;;;;5093345;28;20562;-74
2023/06/28 10:10:07;;;;;;;5.90;1.55;;;;;;;;;;5093214;28;20028;-75
2023/06/28 10:12:34;;;;;;;5.97;1.50;;;;;;;;;;5091910;28;20101;-74
2023/06/28 10:15:02;;;;;;;5.63;1.10;;;;;;;;;;5093579;28;20117;-74
2023/06/28 10:17:28;;;;;;;4.85;1.35;;;;;;;;;;5093257;28;20028;-75
2023/06/28 10:19:54;;;;;;;6.25;1.70;;;;;;;;;;5093547;28;20146;-75
2023/06/28 10:22:20;;;;;;;5.05;1.30;;;;;;;;;;5092425;28;20012;-75
2023/06/28 10:24:46;;;;;;;5.78;1.50;;;;;;;;;;5093789;28;20056;-75
2023/06/28 10:27:12;;;;;;;5.97;1.58;;;;;;;;;;5094511;28;20020;-75
2023/06/28 10:29:38;;;;;;;4.40;1.40;;;;;;;;;;5097617;28;20034;-75
2023/06/28 10:32:07;;;;;;;2.83;1.17;;;;;;;;;;5093996;28;20039;-75
2023/06/28 10:34:33;;;;;;;2.45;1.20;;;;;;;;;;5094457;28;20494;-75
2023/06/28 10:36:58;;;;;;;4.35;1.40;;;;;;;;;;5092444;28;20062;-75
2023/06/28 10:39:24;;;;;;;5.05;1.40;;;;;;;;;;5093099;28;20060;-75
2023/06/28 10:41:57;;;;;;;2.22;1.20;;;;;;;;;;5095491;28;20024;-74
2023/06/28 10:44:23;;;;;;;5.00;1.30;;;;;;;;;;5095715;28;20077;-75
2023/06/28 10:47:07;;;;;;;2.10;1.10;;;;;;;;;;5097088;28;20028;-75
2023/06/28 10:49:35;;;;;;;6.15;1.40;;;;;;;;;;5097228;28;20027;-75
2023/06/28 10:52:01;;;;;;;4.20;1.80;;;;;;;;;;5096604;28;20063;-75
2023/06/28 10:54:26;;;;;;;4.28;1.17;;;;;;;;;;5097139;28;20509;-75
2023/06/28 10:56:55;;;;;;;4.63;1.20;;;;;;;;;;5096657;28;20024;-75
2023/06/28 10:59:20;;;;;;;6.13;1.20;;;;;;;;;;5096777;28;20364;-75
2023/06/28 11:01:48;;;;;;;4.43;1.40;;;;;;;;;;5095422;28;20035;-75
2023/06/28 11:04:26;;;;;;;3.28;1.30;;;;;;;;;;5095351;28;20264;-75
2023/06/28 11:07:06;;;;;;;4.30;1.20;;;;;;;;;;5096634;28;20475;-75
2023/06/28 11:09:32;;;;;;;3.88;1.20;;;;;;;;;;5096748;28;20039;-75
2023/06/28 11:11:58;;;;;;;4.30;1.20;;;;;;;;;;5095283;28;20024;-74
2023/06/28 11:14:27;;;;;;;3.28;1.35;;;;;;;;;;5096686;28;20020;-75
2023/06/28 11:17:01;;;;;;;4.28;1.30;;;;;;;;;;5094961;28;20397;-74
2023/06/28 11:19:27;;;;;;;2.10;1.17;;;;;;;;;;5095741;28;20028;-75
2023/06/28 11:21:59;;;;;;;7.72;1.30;;;;;;;;;;5096393;28;20039;-74
2023/06/28 11:24:40;;;;;;;3.67;1.50;;;;;;;;;;5096265;28;20038;-75
2023/06/28 11:27:21;;;;;;;2.72;1.13;;;;;;;;;;5094859;28;20513;-74
2023/06/28 11:29:57;;;;;;;2.47;1.25;;;;;;;;;;5096381;28;20066;-75
2023/06/28 11:32:27;;;;;;;2.63;1.10;;;;;;;;;;5096139;28;20028;-76
2023/06/28 11:34:58;;;;;;;6.20;1.20;;;;;;;;;;5096387;28;20030;-76
2023/06/28 11:37:23;;;;;;;3.95;1.50;;;;;;;;;;5096096;28;20067;-74
2023/06/28 11:39:49;;;;;;;6.18;1.38;;;;;;;;;;5095804;28;20052;-74
2023/06/28 11:42:14;;;;;;;3.08;1.23;;;;;;;;;;5096103;28;20074;-74
2023/06/28 11:44:45;;;;;;;3.58;1.50;;;;;;;;;;5095823;28;20026;-75
2023/06/28 11:47:11;;;;;;;4.18;1.40;;;;;;;;;;5095935;28;20119;-75
2023/06/28 11:49:37;;;;;;;4.53;1.30;;;;;;;;;;5095099;28;20063;-75
2023/06/28 11:52:02;;;;;;;2.45;1.02;;;;;;;;;;5095335;28;20051;-74
2023/06/28 11:54:31;;;;;;;5.47;1.38;;;;;;;;;;5095879;28;20022;-75
2023/06/28 11:56:56;;;;;;;3.15;1.05;;;;;;;;;;5095485;28;20081;-74
2023/06/28 11:59:22;;;;;;;5.40;1.30;;;;;;;;;;5095622;28;20027;-74
2023/06/28 12:01:59;;;;;;;5.15;1.10;;;;;;;;;;5096009;28;20754;-75
2023/06/28 12:04:24;;;;;;;7.50;1.40;;;;;;;;;;5095556;28;20028;-74
2023/06/28 12:06:53;;;;;;;1.93;1.20;;;;;;;;;;5095297;28;20031;-75
2023/06/28 12:09:27;;;;;;;3.78;1.20;;;;;;;;;;5095719;28;20256;-74
2023/06/28 12:12:01;;;;;;;2.72;1.13;;;;;;;;;;5095368;28;20024;-74
2023/06/28 12:14:27;;;;;;;2.60;1.20;;;;;;;;;;5095726;28;20028;-75
2023/06/28 12:16:54;;;;;;;2.05;0.98;;;;;;;;;;5093839;28;20047;-75
2023/06/28 12:19:24;;;;;;;2.90;1.30;;;;;;;;;;5095139;28;20604;-75
2023/06/28 12:21:52;;;;;;;3.00;1.25;;;;;;;;;;5095747;28;20032;-75
2023/06/28 12:24:22;;;;;;;2.30;1.10;;;;;;;;;;5095620;28;20459;-75
2023/06/28 12:26:49;;;;;;;2.83;1.30;;;;;;;;;;5097092;28;20031;-75
2023/06/28 12:29:23;;;;;;;7.28;1.25;;;;;;;;;;5097357;28;20024;-76
2023/06/28 12:31:50;;;;;;;5.22;1.20;;;;;;;;;;5096837;28;20027;-75
2023/06/28 12:34:27;;;;;;;1.20;0.80;;;;;;;;;;5096767;28;20059;-75
2023/06/28 12:36:53;;;;;;;7.85;1.33;;;;;;;;;;5095060;28;20020;-74
2023/06/28 12:39:26;;;;;;;2.63;1.08;;;;;;;;;;5098596;28;20027;-76
2023/06/28 12:42:00;;;;;;;3.80;1.30;;;;;;;;;;5098612;28;20060;-74
2023/06/28 12:44:26;;;;;;;1.88;1.02;;;;;;;;;;5095989;28;20253;-74
2023/06/28 12:46:51;;;;;;;2.57;1.10;;;;;;;;;;5094714;28;20020;-74
2023/06/28 12:49:16;;;;;;;1.93;0.83;;;;;;;;;;5094631;28;20261;-74
2023/06/28 12:51:41;;;;;;;3.78;1.20;;;;;;;;;;5095015;28;20267;-75
2023/06/28 12:54:06;;;;;;;2.40;1.07;;;;;;;;;;5094647;28;20024;-74
2023/06/28 12:56:32;;;;;;;2.93;1.27;;;;;;;;;;5094366;28;20280;-75
2023/06/28 12:58:57;;;;;;;4.73;1.20;;;;;;;;;;5094451;28;20264;-75
2023/06/28 13:01:22;;;;;;;2.57;1.13;;;;;;;;;;5094352;28;20252;-75
2023/06/28 13:03:54;;;;;;;2.87;0.97;;;;;;;;;;5093620;28;20267;-75
2023/06/28 13:06:19;;;;;;;1.73;1.05;;;;;;;;;;5092947;28;20264;-75
2023/06/28 13:08:45;;;;;;;1.92;1.08;;;;;;;;;;5094180;28;20086;-75
2023/06/28 13:11:12;;;;;;;4.07;1.40;;;;;;;;;;5092989;28;20046;-75
2023/06/28 13:13:37;;;;;;;2.88;0.95;;;;;;;;;;5094117;28;20085;-74
2023/06/28 13:16:02;;;;;;;2.13;1.20;;;;;;;;;;5094084;28;20036;-74
2023/06/28 13:18:28;;;;;;;4.72;1.20;;;;;;;;;;5093776;28;20309;-75
2023/06/28 13:20:53;;;;;;;2.30;1.10;;;;;;;;;;5092527;28;20403;-75
2023/06/28 13:23:19;;;;;;;3.40;1.10;;;;;;;;;;5093898;28;20068;-75
2023/06/28 13:25:44;;;;;;;1.73;1.00;;;;;;;;;;5093850;28;20347;-75
2023/06/28 13:28:09;;;;;;;4.53;1.10;;;;;;;;;;5093731;28;20264;-75
2023/06/28 13:30:34;;;;;;;3.47;1.20;;;;;;;;;;5093661;28;20272;-75
2023/06/28 13:32:59;;;;;;;2.65;1.10;;;;;;;;;;5093544;28;20276;-74
2023/06/28 13:35:25;;;;;;;5.70;1.40;;;;;;;;;;5093605;28;20031;-74
2023/06/28 13:37:50;;;;;;;4.23;1.10;;;;;;;;;;5093583;28;20257;-73
2023/06/28 13:40:17;;;;;;;3.33;1.10;;;;;;;;;;5093589;28;20260;-74
2023/06/28 13:42:43;;;;;;;2.22;1.00;;;;;;;;;;5092182;28;20153;-74
2023/06/28 13:45:09;;;;;;;2.53;1.10;;;;;;;;;;5093705;28;20043;-73
2023/06/28 13:47:34;;;;;;;1.98;1.20;;;;;;;;;;5093747;28;20032;-74
2023/06/28 13:49:59;;;;;;;3.53;1.30;;;;;;;;;;5091974;28;20039;-76
2023/06/28 13:52:24;;;;;;;6.05;1.17;;;;;;;;;;5092218;28;20272;-75
2023/06/28 13:54:50;;;;;;;5.03;1.20;;;;;;;;;;5093595;28;20028;-74
2023/06/28 13:57:15;;;;;;;6.07;1.30;;;;;;;;;;5093608;28;20251;-75
2023/06/28 13:59:40;;;;;;;4.73;1.20;;;;;;;;;;5092086;28;20024;-74
2023/06/28 14:02:06;;;;;;;3.53;1.30;;;;;;;;;;5093527;28;20271;-75
2023/06/28 14:04:31;;;;;;;4.63;1.02;;;;;;;;;;5093666;28;20265;-76
2023/06/28 14:06:57;;;;;;;6.13;1.40;;;;;;;;;;5092992;28;20073;-75
2023/06/28 14:09:22;;;;;;;4.20;1.20;;;;;;;;;;5091893;28;20073;-75
2023/06/28 14:11:47;;;;;;;4.37;1.13;;;;;;;;;;5091939;28;20265;-75
2023/06/28 14:14:12;;;;;;;2.97;1.00;;;;;;;;;;5093224;28;20276;-74
2023/06/28 14:16:38;;;;;;;2.65;1.08;;;;;;;;;;5099953;28;20627;-75
2023/06/28 14:19:03;;;;;;;6.17;1.30;;;;;;;;;;5099902;28;20035;-74
2023/06/28 14:21:28;;;;;;;4.75;1.38;;;;;;;;;;5100050;28;20619;-75
2023/06/28 14:23:53;;;;;;;3.93;1.20;;;;;;;;;;5099965;28;20078;-75
2023/06/28 14:26:19;;;;;;;3.10;1.37;;;;;;;;;;5100396;28;20256;-74
2023/06/28 14:28:44;;;;;;;3.60;1.20;;;;;;;;;;5098374;28;20318;-74
2023/06/28 14:31:11;;;;;;;2.63;1.10;;;;;;;;;;5100321;28;20289;-75
2023/06/28 14:33:44;;;;;;;2.50;1.27;;;;;;;;;;5099811;28;20062;-75
2023/06/28 14:36:09;;;;;;;3.60;1.17;;;;;;;;;;5100025;28;20425;-75